Time,TemperatureF,DewpointF,PressureIn,WindDirection,WindDirectionDegrees,WindSpeedMPH,WindSpeedGustMPH,Humidity,HourlyPrecipIn,Conditions,Clouds,dailyrainin,SoftwareType,DateUTC
2013-02-07 00:00:00,47.6,39.7,30.01,ESE,113,0.0,1.0,74,0.00,,BKN075,0.00,VWS V14.01,2013-02-07 06:00:00,
2013-02-07 00:05:00,47.5,40.3,30.02,ESE,114,0.0,0.0,76,0.00,,BKN075,0.00,VWS V14.01,2013-02-07 06:05:00,
2013-02-07 00:10:00,47.3,40.1,30.02,ESE,114,1.0,1.0,76,0.00,,BKN075,0.00,VWS V14.01,2013-02-07 06:10:00,
2013-02-07 00:15:00,47.3,40.1,30.02,ESE,114,0.0,3.0,76,0.00,,BKN075,0.00,VWS V14.01,2013-02-07 06:15:00,
2013-02-07 00:21:00,47.3,40.5,30.01,ESE,114,0.0,0.0,77,0.00,,BKN075,0.00,VWS V14.01,2013-02-07 06:21:00,
2013-02-07 00:26:00,47.2,40.4,30.01,ESE,114,0.0,1.0,77,0.00,,BKN075,0.00,VWS V14.01,2013-02-07 06:26:00,
2013-02-07 00:31:00,47.2,40.4,30.01,ESE,114,0.0,1.0,77,0.00,,BKN075,0.00,VWS V14.01,2013-02-07 06:31:00,
2013-02-07 00:36:00,47.3,40.5,30.01,ESE,114,0.0,0.0,77,0.00,,BKN075,0.00,VWS V14.01,2013-02-07 06:36:00,
2013-02-07 00:41:00,47.3,40.5,30.01,ESE,114,0.0,1.0,77,0.00,,BKN075,0.00,VWS V14.01,2013-02-07 06:41:00,
2013-02-07 00:46:00,47.3,40.5,30.01,ESE,114,0.0,1.0,77,0.00,,BKN075,0.00,VWS V14.01,2013-02-07 06:46:00,
2013-02-07 00:51:00,47.4,40.6,30.01,ESE,116,0.0,3.0,77,0.00,,BKN075,0.00,VWS V14.01,2013-02-07 06:51:00,
2013-02-07 00:56:00,47.5,40.7,30.01,ESE,117,0.0,3.0,77,0.00,,BKN075,0.00,VWS V14.01,2013-02-07 06:56:00,
2013-02-07 01:01:00,47.6,40.4,30.01,ESE,120,0.0,3.0,76,0.00,,BKN075,0.00,VWS V14.01,2013-02-07 07:01:00,
2013-02-07 01:06:00,47.7,40.5,30.01,ESE,123,0.0,4.0,76,0.00,,BKN075,0.00,VWS V14.01,2013-02-07 07:06:00,
2013-02-07 01:11:00,47.7,40.8,30.00,ESE,119,0.0,3.0,77,0.00,,BKN075,0.00,VWS V14.01,2013-02-07 07:11:00,
2013-02-07 01:17:00,47.8,41.3,30.00,ESE,119,0.0,1.0,78,0.00,,BKN075,0.00,VWS V14.01,2013-02-07 07:17:00,
2013-02-07 01:22:00,47.7,41.2,30.00,ESE,119,0.0,0.0,78,0.00,,BKN075,0.00,VWS V14.01,2013-02-07 07:22:00,
2013-02-07 01:27:00,47.9,41.4,30.00,ESE,119,0.0,0.0,78,0.00,,BKN075,0.00,VWS V14.01,2013-02-07 07:27:00,
2013-02-07 01:32:00,47.9,41.7,30.00,ESE,119,0.0,1.0,79,0.00,,BKN075,0.00,VWS V14.01,2013-02-07 07:32:00,
2013-02-07 01:37:00,48.0,41.8,30.00,ESE,119,0.0,1.0,79,0.00,,BKN075,0.00,VWS V14.01,2013-02-07 07:37:00,
2013-02-07 01:42:00,48.2,42.0,30.00,ESE,119,0.0,0.0,79,0.00,,BKN075,0.00,VWS V14.01,2013-02-07 07:42:00,
2013-02-07 01:47:00,48.3,42.8,29.99,ESE,119,0.0,3.0,81,0.00,,BKN075,0.00,VWS V14.01,2013-02-07 07:47:00,
2013-02-07 01:52:00,48.4,42.8,29.99,ESE,119,0.0,1.0,81,0.00,,BKN075,0.00,VWS V14.01,2013-02-07 07:52:00,
2013-02-07 01:57:00,48.6,43.0,29.99,ESE,119,0.0,1.0,81,0.00,,BKN075,0.00,VWS V14.01,2013-02-07 07:57:00,
2013-02-07 02:02:00,48.7,43.1,29.99,ESE,119,0.0,1.0,81,0.00,,BKN075,0.00,VWS V14.01,2013-02-07 08:02:00,
2013-02-07 02:07:00,48.7,42.8,29.99,ESE,119,0.0,1.0,80,0.00,,BKN075,0.00,VWS V14.01,2013-02-07 08:07:00,
2013-02-07 02:12:00,48.7,43.1,29.99,ESE,119,0.0,1.0,81,0.00,,BKN075,0.00,VWS V14.01,2013-02-07 08:12:00,
2013-02-07 02:17:00,48.7,43.5,29.99,ESE,119,0.0,1.0,82,0.00,,BKN075,0.00,VWS V14.01,2013-02-07 08:17:00,
2013-02-07 02:22:00,48.8,43.6,29.99,ESE,119,0.0,2.0,82,0.00,,BKN075,0.00,VWS V14.01,2013-02-07 08:22:00,
2013-02-07 02:27:00,49.1,43.8,29.99,ESE,119,0.0,3.0,82,0.00,,BKN075,0.00,VWS V14.01,2013-02-07 08:27:00,
2013-02-07 02:33:00,49.3,44.4,29.98,ESE,119,0.0,2.0,83,0.00,,BKN075,0.00,VWS V14.01,2013-02-07 08:33:00,
2013-02-07 02:38:00,49.6,44.7,29.98,ESE,119,0.0,2.0,83,0.00,,BKN075,0.00,VWS V14.01,2013-02-07 08:38:00,
2013-02-07 02:43:00,50.0,45.7,29.98,ESE,123,0.0,2.0,85,0.00,,BKN075,0.00,VWS V14.01,2013-02-07 08:43:00,
2013-02-07 02:48:00,50.5,46.5,29.98,SE,124,0.0,2.0,86,0.00,,BKN075,0.00,VWS V14.01,2013-02-07 08:48:00,
2013-02-07 02:53:00,51.0,47.3,29.97,ESE,118,6.0,6.0,87,0.00,,BKN075,0.00,VWS V14.01,2013-02-07 08:53:00,
2013-02-07 02:58:00,51.4,47.7,29.98,SSE,151,2.0,7.0,87,0.00,,BKN075,0.00,VWS V14.01,2013-02-07 08:58:00,
2013-02-07 03:03:00,51.7,48.0,29.98,SSE,164,0.0,2.0,87,0.00,,BKN075,0.00,VWS V14.01,2013-02-07 09:03:00,
2013-02-07 03:08:00,51.9,48.2,29.97,South,171,0.0,2.0,87,0.00,,BKN075,0.00,VWS V14.01,2013-02-07 09:08:00,
2013-02-07 03:13:00,52.1,48.4,29.97,SSW,197,0.0,4.0,87,0.00,,BKN075,0.00,VWS V14.01,2013-02-07 09:13:00,
2013-02-07 03:18:00,52.4,49.0,29.96,SSW,200,2.0,3.0,88,0.00,,BKN075,0.00,VWS V14.01,2013-02-07 09:18:00,
2013-02-07 03:23:00,52.7,49.0,29.96,SSW,204,0.0,6.0,87,0.00,,BKN075,0.00,VWS V14.01,2013-02-07 09:23:00,
2013-02-07 03:28:00,52.8,49.0,29.97,SSW,206,0.0,3.0,87,0.00,,BKN075,0.00,VWS V14.01,2013-02-07 09:28:00,
2013-02-07 03:33:00,53.0,49.2,29.96,SSW,210,1.0,5.0,87,0.00,,BKN075,0.00,VWS V14.01,2013-02-07 09:33:00,
2013-02-07 03:38:00,53.0,48.9,29.97,SW,214,0.0,6.0,86,0.00,,BKN075,0.00,VWS V14.01,2013-02-07 09:38:00,
2013-02-07 03:43:00,53.0,48.9,29.97,SSW,205,1.0,4.0,86,0.00,,BKN075,0.00,VWS V14.01,2013-02-07 09:43:00,
2013-02-07 03:48:00,53.0,48.9,29.96,SSW,212,0.0,3.0,86,0.00,,BKN075,0.00,VWS V14.01,2013-02-07 09:48:00,
2013-02-07 03:53:00,53.0,48.9,29.96,SSW,212,0.0,3.0,86,0.00,,BKN075,0.00,VWS V14.01,2013-02-07 09:53:00,
2013-02-07 03:59:00,52.9,48.8,29.96,SW,218,4.0,5.0,86,0.00,,BKN075,0.00,VWS V14.01,2013-02-07 09:59:00,
2013-02-07 04:04:00,53.0,48.9,29.96,SSW,205,0.0,7.0,86,0.00,,BKN075,0.00,VWS V14.01,2013-02-07 10:04:00,
2013-02-07 04:09:00,53.0,48.9,29.96,SSW,209,2.0,6.0,86,0.00,,BKN075,0.00,VWS V14.01,2013-02-07 10:09:00,
2013-02-07 04:14:00,53.0,48.9,29.96,SSW,209,1.0,7.0,86,0.00,,BKN075,0.00,VWS V14.01,2013-02-07 10:14:00,
2013-02-07 04:19:00,53.0,48.9,29.96,SSW,210,0.0,7.0,86,0.00,,BKN075,0.00,VWS V14.01,2013-02-07 10:19:00,
2013-02-07 04:24:00,53.0,48.6,29.96,SSW,204,4.0,10.0,85,0.00,,BKN075,0.00,VWS V14.01,2013-02-07 10:24:00,
2013-02-07 04:29:00,53.0,48.6,29.96,SSW,203,0.0,6.0,85,0.00,,BKN075,0.00,VWS V14.01,2013-02-07 10:29:00,
2013-02-07 04:34:00,52.9,48.8,29.96,SSW,203,0.0,5.0,86,0.00,,BKN075,0.00,VWS V14.01,2013-02-07 10:34:00,
2013-02-07 04:39:00,52.9,48.5,29.96,SSW,208,4.0,6.0,85,0.00,,BKN075,0.00,VWS V14.01,2013-02-07 10:39:00,
2013-02-07 04:44:00,52.9,48.5,29.95,SSW,199,0.0,9.0,85,0.00,,BKN075,0.00,VWS V14.01,2013-02-07 10:44:00,
2013-02-07 04:49:00,52.7,48.3,29.96,SSW,210,0.0,9.0,85,0.00,,BKN075,0.00,VWS V14.01,2013-02-07 10:49:00,
2013-02-07 04:54:00,52.7,48.3,29.95,SSW,212,0.0,5.0,85,0.00,,BKN075,0.00,VWS V14.01,2013-02-07 10:54:00,
2013-02-07 04:59:00,52.6,48.2,29.95,SW,219,0.0,5.0,85,0.00,,BKN075,0.00,VWS V14.01,2013-02-07 10:59:00,
2013-02-07 05:04:00,52.6,48.5,29.95,SSW,206,5.0,12.0,86,0.00,,BKN075,0.00,VWS V14.01,2013-02-07 11:04:00,
2013-02-07 05:09:00,52.4,48.3,29.95,South,191,0.0,7.0,86,0.00,,BKN075,0.00,VWS V14.01,2013-02-07 11:09:00,
2013-02-07 05:14:00,52.4,48.7,29.95,SSW,204,0.0,4.0,87,0.00,,BKN075,0.00,VWS V14.01,2013-02-07 11:14:00,
2013-02-07 05:19:00,52.4,48.3,29.95,SSE,157,0.0,4.0,86,0.00,,BKN075,0.00,VWS V14.01,2013-02-07 11:19:00,
2013-02-07 05:24:00,52.6,48.5,29.95,SSW,198,2.0,7.0,86,0.00,,BKN075,0.00,VWS V14.01,2013-02-07 11:24:00,
2013-02-07 05:29:00,52.7,48.3,29.95,SSW,206,0.0,4.0,85,0.00,,BKN075,0.00,VWS V14.01,2013-02-07 11:29:00,
2013-02-07 05:35:00,52.7,48.3,29.95,South,191,1.0,4.0,85,0.00,,BKN075,0.00,VWS V14.01,2013-02-07 11:35:00,
2013-02-07 05:40:00,52.9,48.5,29.94,SW,214,0.0,7.0,85,0.00,,BKN075,0.00,VWS V14.01,2013-02-07 11:40:00,
2013-02-07 05:45:00,52.9,48.5,29.94,SSW,211,0.0,4.0,85,0.00,,BKN075,0.00,VWS V14.01,2013-02-07 11:45:00,
2013-02-07 05:50:00,52.8,48.1,29.95,SSW,209,0.0,4.0,84,0.00,,BKN075,0.00,VWS V14.01,2013-02-07 11:50:00,
2013-02-07 05:55:00,52.9,48.2,29.95,SSW,203,0.0,1.0,84,0.00,,BKN075,0.00,VWS V14.01,2013-02-07 11:55:00,
2013-02-07 06:02:00,52.9,48.2,29.94,SSW,202,0.0,5.0,84,0.00,,,0.00,VWS V14.01,2013-02-07 12:02:00,
2013-02-07 06:07:00,53.0,48.3,29.95,SSW,207,0.0,2.0,84,0.00,,,0.00,VWS V14.01,2013-02-07 12:07:00,
2013-02-07 06:12:00,53.0,48.3,29.95,SSW,204,0.0,4.0,84,0.00,,,0.00,VWS V14.01,2013-02-07 12:12:00,
2013-02-07 06:17:00,53.0,48.3,29.95,SSW,211,0.0,5.0,84,0.00,,,0.00,VWS V14.01,2013-02-07 12:17:00,
2013-02-07 06:22:00,52.9,47.9,29.95,SSW,210,0.0,3.0,83,0.00,,,0.00,VWS V14.01,2013-02-07 12:22:00,
2013-02-07 06:27:00,52.9,48.2,29.94,SSW,207,0.0,3.0,84,0.00,,,0.00,VWS V14.01,2013-02-07 12:27:00,
2013-02-07 06:32:00,52.9,47.9,29.94,South,189,0.0,3.0,83,0.00,,,0.00,VWS V14.01,2013-02-07 12:32:00,
2013-02-07 06:37:00,52.9,47.9,29.93,SE,126,0.0,3.0,83,0.00,,,0.00,VWS V14.01,2013-02-07 12:37:00,
2013-02-07 06:43:00,52.7,47.7,29.93,ESE,119,0.0,7.0,83,0.00,,,0.00,VWS V14.01,2013-02-07 12:43:00,
2013-02-07 06:47:00,52.7,48.0,29.93,SE,129,3.0,7.0,84,0.00,,,0.00,VWS V14.01,2013-02-07 12:47:00,
2013-02-07 06:53:00,52.6,47.9,29.93,SE,144,1.0,3.0,84,0.00,,,0.00,VWS V14.01,2013-02-07 12:53:00,
2013-02-07 06:58:00,52.4,47.7,29.93,ESE,113,0.0,6.0,84,0.00,,,0.00,VWS V14.01,2013-02-07 12:58:00,
2013-02-07 07:03:00,52.3,47.6,29.94,ESE,117,0.0,0.0,84,0.00,,,0.00,VWS V14.01,2013-02-07 13:03:00,
2013-02-07 07:08:00,52.1,47.4,29.94,ESE,117,0.0,0.0,84,0.00,,,0.00,VWS V14.01,2013-02-07 13:08:00,
2013-02-07 07:13:00,51.8,47.1,29.94,ESE,117,0.0,1.0,84,0.00,,,0.00,VWS V14.01,2013-02-07 13:13:00,
2013-02-07 07:18:00,51.7,47.0,29.94,ESE,117,0.0,0.0,84,0.00,,,0.00,VWS V14.01,2013-02-07 13:18:00,
2013-02-07 07:23:00,51.5,46.8,29.94,ESE,117,1.0,1.0,84,0.00,,,0.00,VWS V14.01,2013-02-07 13:23:00,
2013-02-07 07:28:00,51.4,47.0,29.94,SE,126,0.0,1.0,85,0.00,,,0.00,VWS V14.01,2013-02-07 13:28:00,
2013-02-07 07:33:00,51.3,47.0,29.94,SE,126,0.0,2.0,85,0.00,,OVC018,0.00,VWS V14.01,2013-02-07 13:33:00,
2013-02-07 07:38:00,51.3,47.0,29.95,SE,126,0.0,0.0,85,0.00,,OVC018,0.00,VWS V14.01,2013-02-07 13:38:00,
2013-02-07 07:43:00,51.3,47.0,29.95,SE,127,0.0,1.0,85,0.00,,OVC018,0.00,VWS V14.01,2013-02-07 13:43:00,
2013-02-07 07:49:00,51.2,46.8,29.95,SE,126,0.0,2.0,85,0.00,,OVC018,0.00,VWS V14.01,2013-02-07 13:49:00,
2013-02-07 07:54:00,51.1,46.8,29.95,SE,127,0.0,0.0,85,0.00,,OVC018,0.00,VWS V14.01,2013-02-07 13:54:00,
2013-02-07 07:59:00,51.3,47.0,29.95,SE,127,0.0,0.0,85,0.00,,OVC018,0.00,VWS V14.01,2013-02-07 13:59:00,
2013-02-07 08:04:00,51.4,47.4,29.95,SE,127,0.0,1.0,86,0.00,,OVC018,0.00,VWS V14.01,2013-02-07 14:04:00,
2013-02-07 08:09:00,51.7,47.7,29.95,SE,146,0.0,3.0,86,0.00,,OVC018,0.00,VWS V14.01,2013-02-07 14:09:00,
2013-02-07 08:14:00,52.1,48.0,29.95,SSE,165,0.0,2.0,86,0.00,,OVC018,0.00,VWS V14.01,2013-02-07 14:14:00,
2013-02-07 08:19:00,52.6,48.2,29.94,South,172,0.0,2.0,85,0.00,,OVC018,0.00,VWS V14.01,2013-02-07 14:19:00,
2013-02-07 08:24:00,52.9,48.2,29.95,South,170,0.0,0.0,84,0.00,,OVC018,0.00,VWS V14.01,2013-02-07 14:24:00,
2013-02-07 08:29:00,53.2,48.2,29.95,SE,133,0.0,2.0,83,0.00,,OVC018,0.00,VWS V14.01,2013-02-07 14:29:00,
2013-02-07 08:34:00,53.3,48.0,29.95,SE,134,0.0,2.0,82,0.00,,OVC018,0.00,VWS V14.01,2013-02-07 14:34:00,
2013-02-07 08:39:00,53.4,47.7,29.95,SE,134,0.0,0.0,81,0.00,,OVC018,0.00,VWS V14.01,2013-02-07 14:39:00,
2013-02-07 08:44:00,53.7,48.0,29.95,SE,132,3.0,3.0,81,0.00,,OVC018,0.00,VWS V14.01,2013-02-07 14:44:00,
2013-02-07 08:49:00,53.9,48.2,29.95,SE,125,0.0,3.0,81,0.00,,BKN250,0.00,VWS V14.01,2013-02-07 14:49:00,
2013-02-07 08:54:00,54.2,48.5,29.95,SE,135,0.0,3.0,81,0.00,,BKN250,0.00,VWS V14.01,2013-02-07 14:54:00,
2013-02-07 08:59:00,54.4,48.4,29.95,SE,130,0.0,2.0,80,0.00,,BKN250,0.00,VWS V14.01,2013-02-07 14:59:00,
2013-02-07 09:04:00,54.9,48.5,29.94,SE,127,0.0,5.0,79,0.00,,BKN250,0.00,VWS V14.01,2013-02-07 15:04:00,
2013-02-07 09:09:00,55.4,48.7,29.94,SSE,159,2.0,5.0,78,0.00,,BKN250,0.00,VWS V14.01,2013-02-07 15:09:00,
2013-02-07 09:14:00,55.6,48.5,29.95,SSW,204,0.0,3.0,77,0.00,,BKN250,0.00,VWS V14.01,2013-02-07 15:14:00,
2013-02-07 09:19:00,55.8,48.7,29.96,SSW,209,0.0,3.0,77,0.00,,BKN250,0.00,VWS V14.01,2013-02-07 15:19:00,
2013-02-07 09:24:00,55.8,48.7,29.96,SSW,202,0.0,2.0,77,0.00,,BKN250,0.00,VWS V14.01,2013-02-07 15:24:00,
2013-02-07 09:30:00,55.8,48.7,29.96,SW,216,2.0,4.0,77,0.00,,BKN250,0.00,VWS V14.01,2013-02-07 15:30:00,
2013-02-07 09:35:00,55.7,48.6,29.96,SSW,210,3.0,4.0,77,0.00,,BKN250,0.00,VWS V14.01,2013-02-07 15:35:00,
2013-02-07 09:40:00,55.6,48.9,29.96,SSW,199,0.0,4.0,78,0.00,,BKN250,0.00,VWS V14.01,2013-02-07 15:40:00,
2013-02-07 09:45:00,55.6,49.2,29.95,SSW,196,2.0,5.0,79,0.00,,BKN250,0.00,VWS V14.01,2013-02-07 15:45:00,
2013-02-07 09:50:00,55.6,49.2,29.95,South,186,0.0,4.0,79,0.00,,BKN250,0.00,VWS V14.01,2013-02-07 15:50:00,
2013-02-07 09:55:00,55.7,49.6,29.95,SSE,162,0.0,4.0,80,0.00,,BKN250,0.00,VWS V14.01,2013-02-07 15:55:00,
2013-02-07 10:00:00,55.7,49.3,29.95,SSW,192,0.0,5.0,79,0.00,,BKN250,0.00,VWS V14.01,2013-02-07 16:00:00,
2013-02-07 10:05:00,55.6,49.5,29.95,SSW,200,0.0,5.0,80,0.00,,BKN250,0.00,VWS V14.01,2013-02-07 16:05:00,
2013-02-07 10:10:00,55.7,49.6,29.95,SSW,204,0.0,4.0,80,0.00,,BKN250,0.00,VWS V14.01,2013-02-07 16:10:00,
2013-02-07 10:15:00,56.0,49.9,29.96,SSW,201,0.0,4.0,80,0.00,,BKN250,0.00,VWS V14.01,2013-02-07 16:15:00,
2013-02-07 10:20:00,56.3,50.2,29.96,SSW,211,2.0,3.0,80,0.00,,BKN250,0.00,VWS V14.01,2013-02-07 16:20:00,
2013-02-07 10:25:00,56.4,50.0,29.97,SW,220,2.0,3.0,79,0.00,,BKN250,0.00,VWS V14.01,2013-02-07 16:25:00,
2013-02-07 10:31:00,56.6,50.2,29.96,SW,218,0.0,3.0,79,0.00,,BKN250,0.00,VWS V14.01,2013-02-07 16:31:00,
2013-02-07 10:36:00,56.5,49.7,29.97,WSW,256,0.0,6.0,78,0.00,,BKN250,0.00,VWS V14.01,2013-02-07 16:36:00,
2013-02-07 10:41:00,56.5,50.1,29.97,SSW,198,0.0,5.0,79,0.00,,BKN250,0.00,VWS V14.01,2013-02-07 16:41:00,
2013-02-07 10:46:00,56.5,50.1,29.97,SSW,211,0.0,3.0,79,0.00,,OVC015,0.00,VWS V14.01,2013-02-07 16:46:00,
2013-02-07 10:51:00,56.5,50.1,29.97,WSW,257,0.0,4.0,79,0.00,,OVC015,0.00,VWS V14.01,2013-02-07 16:51:00,
2013-02-07 10:56:00,56.6,50.2,29.98,WSW,246,2.0,4.0,79,0.00,,OVC015,0.00,VWS V14.01,2013-02-07 16:56:00,
2013-02-07 11:01:00,56.6,50.2,29.98,WSW,252,0.0,5.0,79,0.00,,OVC015,0.00,VWS V14.01,2013-02-07 17:01:00,
2013-02-07 11:06:00,56.4,50.0,29.98,SSW,197,2.0,6.0,79,0.00,,OVC015,0.00,VWS V14.01,2013-02-07 17:06:00,
2013-02-07 11:11:00,56.4,50.0,29.98,SW,224,0.0,3.0,79,0.00,,OVC015,0.00,VWS V14.01,2013-02-07 17:11:00,
2013-02-07 11:16:00,56.3,49.9,29.98,SW,224,0.0,5.0,79,0.00,,OVC015,0.00,VWS V14.01,2013-02-07 17:16:00,
2013-02-07 11:21:00,56.3,49.9,29.97,SSW,213,1.0,7.0,79,0.00,,OVC015,0.00,VWS V14.01,2013-02-07 17:21:00,
2013-02-07 11:26:00,56.1,50.0,29.97,SW,230,3.0,7.0,80,0.00,,OVC015,0.00,VWS V14.01,2013-02-07 17:26:00,
2013-02-07 11:31:00,56.0,50.3,29.97,SSW,205,0.0,7.0,81,0.00,,OVC015,0.00,VWS V14.01,2013-02-07 17:31:00,
2013-02-07 11:36:00,55.8,50.1,29.97,SW,233,4.0,10.0,81,0.00,,OVC015,0.00,VWS V14.01,2013-02-07 17:36:00,
2013-02-07 11:41:00,55.7,50.3,29.97,WSW,237,1.0,10.0,82,0.00,,OVC015,0.00,VWS V14.01,2013-02-07 17:41:00,
2013-02-07 11:46:00,55.4,50.0,29.97,SW,233,0.0,11.0,82,0.00,,OVC029,0.00,VWS V14.01,2013-02-07 17:46:00,
2013-02-07 11:51:00,55.3,50.6,29.97,SW,226,3.0,6.0,84,0.00,,OVC029,0.00,VWS V14.01,2013-02-07 17:51:00,
2013-02-07 11:56:00,55.3,50.9,29.96,SSW,200,2.0,7.0,85,0.00,,OVC029,0.00,VWS V14.01,2013-02-07 17:56:00,
2013-02-07 12:01:00,55.1,51.0,29.96,SSW,202,2.0,6.0,86,0.00,,OVC029,0.00,VWS V14.01,2013-02-07 18:01:00,
2013-02-07 12:06:00,55.0,51.2,29.96,SSW,203,0.0,5.0,87,0.01,,OVC029,0.01,VWS V14.01,2013-02-07 18:06:00,
2013-02-07 12:12:00,55.0,51.5,29.96,SSW,207,0.0,5.0,88,0.01,,OVC029,0.01,VWS V14.01,2013-02-07 18:12:00,
2013-02-07 12:17:00,54.9,51.1,29.95,SW,214,0.0,5.0,87,0.01,,OVC029,0.01,VWS V14.01,2013-02-07 18:17:00,
2013-02-07 12:22:00,54.8,51.3,29.95,SW,228,0.0,2.0,88,0.01,,OVC029,0.01,VWS V14.01,2013-02-07 18:22:00,
2013-02-07 12:27:00,55.0,52.1,29.94,SSW,208,0.0,3.0,90,0.01,,OVC029,0.01,VWS V14.01,2013-02-07 18:27:00,
2013-02-07 12:32:00,55.2,52.3,29.94,SSW,208,0.0,2.0,90,0.01,,OVC029,0.01,VWS V14.01,2013-02-07 18:32:00,
2013-02-07 12:37:00,55.2,52.0,29.94,SSW,210,0.0,5.0,89,0.01,,OVC029,0.01,VWS V14.01,2013-02-07 18:37:00,
2013-02-07 12:42:00,55.1,51.9,29.94,SW,230,0.0,1.0,89,0.01,,OVC029,0.01,VWS V14.01,2013-02-07 18:42:00,
2013-02-07 12:47:00,55.2,52.0,29.94,SSW,210,2.0,3.0,89,0.01,,-RA,0.01,VWS V14.01,2013-02-07 18:47:00,
2013-02-07 12:52:00,55.1,51.6,29.94,SSW,205,0.0,2.0,88,0.01,,-RA,0.01,VWS V14.01,2013-02-07 18:52:00,
2013-02-07 12:57:00,55.2,51.7,29.94,SSW,199,0.0,4.0,88,0.01,,-RA,0.01,VWS V14.01,2013-02-07 18:57:00,
2013-02-07 13:02:00,55.2,51.7,29.93,SSW,199,0.0,3.0,88,0.01,,-RA,0.01,VWS V14.01,2013-02-07 19:02:00,
2013-02-07 13:07:00,55.2,51.7,29.93,SW,223,0.0,5.0,88,0.01,,-RA,0.01,VWS V14.01,2013-02-07 19:07:00,
2013-02-07 13:12:00,55.0,51.5,29.93,SW,215,0.0,4.0,88,0.00,,-RA,0.01,VWS V14.01,2013-02-07 19:12:00,
2013-02-07 13:17:00,55.0,51.2,29.93,SSW,201,0.0,5.0,87,0.00,,-RA,0.01,VWS V14.01,2013-02-07 19:17:00,
2013-02-07 13:22:00,54.9,51.4,29.93,SSW,205,0.0,3.0,88,0.00,,-RA,0.01,VWS V14.01,2013-02-07 19:22:00,
2013-02-07 13:28:00,54.9,51.4,29.93,SW,214,0.0,4.0,88,0.00,,-RA,0.01,VWS V14.01,2013-02-07 19:28:00,
2013-02-07 13:33:00,54.9,51.4,29.93,SSW,203,0.0,3.0,88,0.00,,-RA,0.01,VWS V14.01,2013-02-07 19:33:00,
2013-02-07 13:38:00,54.9,51.4,29.93,SSW,212,0.0,5.0,88,0.00,,-RA,0.01,VWS V14.01,2013-02-07 19:38:00,
2013-02-07 13:43:00,54.9,51.4,29.93,SSW,204,1.0,5.0,88,0.00,,-RA,0.01,VWS V14.01,2013-02-07 19:43:00,
2013-02-07 13:48:00,55.0,51.5,29.92,SSW,208,0.0,6.0,88,0.00,,BKN008OVC014,0.01,VWS V14.01,2013-02-07 19:48:00,
2013-02-07 13:53:00,55.0,51.5,29.92,SSW,205,0.0,4.0,88,0.00,,BKN008OVC014,0.01,VWS V14.01,2013-02-07 19:53:00,
2013-02-07 13:58:00,55.0,51.8,29.92,SSW,201,0.0,3.0,89,0.00,,BKN008OVC014,0.01,VWS V14.01,2013-02-07 19:58:00,
2013-02-07 14:03:00,55.1,51.6,29.92,SSW,211,2.0,3.0,88,0.00,,BKN008OVC014,0.01,VWS V14.01,2013-02-07 20:03:00,
2013-02-07 14:08:00,55.1,51.6,29.92,SSW,201,0.0,5.0,88,0.00,,BKN008OVC014,0.01,VWS V14.01,2013-02-07 20:08:00,
2013-02-07 14:13:00,55.2,51.7,29.92,SSW,208,0.0,1.0,88,0.00,,BKN008OVC014,0.01,VWS V14.01,2013-02-07 20:13:00,
2013-02-07 14:18:00,55.2,51.7,29.92,SSW,208,0.0,3.0,88,0.00,,BKN008OVC014,0.01,VWS V14.01,2013-02-07 20:18:00,
2013-02-07 14:23:00,55.2,51.7,29.93,SW,217,0.0,1.0,88,0.00,,BKN008OVC014,0.01,VWS V14.01,2013-02-07 20:23:00,
2013-02-07 14:28:00,55.2,52.0,29.93,NNW,347,4.0,5.0,89,0.00,,BKN008OVC014,0.01,VWS V14.01,2013-02-07 20:28:00,
2013-02-07 14:33:00,55.0,51.5,29.93,NNW,328,2.0,5.0,88,0.00,,BKN008OVC014,0.01,VWS V14.01,2013-02-07 20:33:00,
2013-02-07 14:38:00,55.0,51.5,29.93,NW,308,0.0,2.0,88,0.00,,BKN008OVC014,0.01,VWS V14.01,2013-02-07 20:38:00,
2013-02-07 14:43:00,54.9,51.4,29.93,NNW,334,0.0,3.0,88,0.00,,BKN008OVC014,0.01,VWS V14.01,2013-02-07 20:43:00,
2013-02-07 14:48:00,54.7,51.5,29.93,NNW,334,0.0,1.0,89,0.01,,BKN008OVC014,0.02,VWS V14.01,2013-02-07 20:48:00,
2013-02-07 14:53:00,54.7,51.8,29.93,NW,324,0.0,3.0,90,0.01,,BKN008OVC014,0.02,VWS V14.01,2013-02-07 20:53:00,
2013-02-07 14:58:00,54.0,50.8,29.94,NW,320,0.0,0.0,89,0.01,,BKN008OVC014,0.02,VWS V14.01,2013-02-07 20:58:00,
2013-02-07 15:04:00,54.0,51.1,29.93,NW,318,0.0,0.0,90,0.02,,,0.03,VWS V14.01,2013-02-07 21:04:00,
2013-02-07 15:09:00,53.9,51.0,29.93,NW,318,0.0,1.0,90,0.03,,,0.04,VWS V14.01,2013-02-07 21:09:00,
2013-02-07 15:14:00,53.9,51.3,29.93,WNW,290,0.0,3.0,91,0.03,,,0.04,VWS V14.01,2013-02-07 21:14:00,
2013-02-07 15:19:00,53.7,51.4,29.94,NW,323,1.0,3.0,92,0.03,,,0.04,VWS V14.01,2013-02-07 21:19:00,
2013-02-07 15:24:00,53.6,51.0,29.94,NNW,344,0.0,3.0,91,0.03,,,0.04,VWS V14.01,2013-02-07 21:24:00,
2013-02-07 15:29:00,53.5,51.2,29.94,North,349,3.0,4.0,92,0.03,,,0.04,VWS V14.01,2013-02-07 21:29:00,
2013-02-07 15:34:00,53.3,50.7,29.94,NW,324,2.0,5.0,91,0.04,,,0.05,VWS V14.01,2013-02-07 21:34:00,
2013-02-07 15:39:00,53.2,50.9,29.94,NNW,346,2.0,5.0,92,0.04,,,0.05,VWS V14.01,2013-02-07 21:39:00,
2013-02-07 15:44:00,53.0,50.7,29.94,NNW,335,0.0,7.0,92,0.05,,,0.06,VWS V14.01,2013-02-07 21:44:00,
2013-02-07 15:49:00,53.0,50.7,29.94,NW,318,0.0,2.0,92,0.05,,RA,0.06,VWS V14.01,2013-02-07 21:49:00,
2013-02-07 15:54:00,53.0,50.7,29.94,North,354,0.0,3.0,92,0.04,,RA,0.06,VWS V14.01,2013-02-07 21:54:00,
2013-02-07 15:59:00,53.0,50.7,29.95,NNW,335,2.0,5.0,92,0.04,,RA,0.06,VWS V14.01,2013-02-07 21:59:00,
2013-02-07 16:04:00,53.0,51.0,29.94,NNW,338,1.0,5.0,93,0.03,,RA,0.06,VWS V14.01,2013-02-07 22:04:00,
2013-02-07 16:09:00,52.9,50.6,29.94,NW,326,4.0,8.0,92,0.03,,RA,0.06,VWS V14.01,2013-02-07 22:09:00,
2013-02-07 16:14:00,52.6,50.3,29.94,NNW,344,3.0,8.0,92,0.02,,RA,0.06,VWS V14.01,2013-02-07 22:14:00,
2013-02-07 16:19:00,52.5,50.2,29.95,NNW,333,1.0,7.0,92,0.02,,RA,0.06,VWS V14.01,2013-02-07 22:19:00,
2013-02-07 16:24:00,52.7,50.5,29.95,North,358,0.0,9.0,92,0.02,,RA,0.06,VWS V14.01,2013-02-07 22:24:00,
2013-02-07 16:29:00,52.7,50.5,29.95,North,359,0.0,6.0,92,0.02,,RA,0.06,VWS V14.01,2013-02-07 22:29:00,
2013-02-07 16:34:00,52.7,50.5,29.95,NNW,340,4.0,9.0,92,0.02,,RA,0.06,VWS V14.01,2013-02-07 22:34:00,
2013-02-07 16:40:00,52.6,50.3,29.96,North,355,2.0,8.0,92,0.02,,RA,0.06,VWS V14.01,2013-02-07 22:40:00,
2013-02-07 16:45:00,52.4,49.8,29.96,North,350,3.0,10.0,91,0.01,,RA,0.06,VWS V14.01,2013-02-07 22:45:00,
2013-02-07 16:50:00,52.3,49.8,29.96,NNW,346,0.0,8.0,91,0.00,,-RA,0.06,VWS V14.01,2013-02-07 22:50:00,
2013-02-07 16:55:00,52.3,49.8,29.96,North,351,0.0,7.0,91,0.00,,-RA,0.06,VWS V14.01,2013-02-07 22:55:00,
2013-02-07 17:00:00,52.1,49.6,29.96,NNW,348,2.0,7.0,91,0.00,,-RA,0.06,VWS V14.01,2013-02-07 23:00:00,
2013-02-07 17:05:00,52.0,49.5,29.96,North,355,0.0,7.0,91,0.00,,-RA,0.06,VWS V14.01,2013-02-07 23:05:00,
2013-02-07 17:10:00,52.0,49.8,29.96,North,358,0.0,6.0,92,0.00,,-RA,0.06,VWS V14.01,2013-02-07 23:10:00,
2013-02-07 17:15:00,51.9,49.4,29.97,North,354,0.0,4.0,91,0.00,,-RA,0.06,VWS V14.01,2013-02-07 23:15:00,
2013-02-07 17:20:00,51.7,49.5,29.97,North,356,3.0,4.0,92,0.00,,-RA,0.06,VWS V14.01,2013-02-07 23:20:00,
2013-02-07 17:25:00,51.4,48.9,29.96,NNE,16,0.0,9.0,91,0.00,,-RA,0.06,VWS V14.01,2013-02-07 23:25:00,
2013-02-07 17:30:00,51.3,48.8,29.97,NNE,16,1.0,4.0,91,0.00,,-RA,0.06,VWS V14.01,2013-02-07 23:30:00,
2013-02-07 17:35:00,51.2,48.7,29.97,NNE,21,3.0,4.0,91,0.01,,-RA,0.07,VWS V14.01,2013-02-07 23:35:00,
2013-02-07 17:41:00,51.0,48.5,29.97,NNW,345,0.0,4.0,91,0.01,,-RA,0.07,VWS V14.01,2013-02-07 23:41:00,
2013-02-07 17:46:00,51.0,48.5,29.98,North,358,0.0,5.0,91,0.01,,-RA,0.07,VWS V14.01,2013-02-07 23:46:00,
2013-02-07 17:51:00,50.9,48.4,29.98,NNW,347,0.0,7.0,91,0.01,,-RA,0.07,VWS V14.01,2013-02-07 23:51:00,
2013-02-07 17:56:00,50.9,48.4,29.99,North,358,0.0,6.0,91,0.01,,-RA,0.07,VWS V14.01,2013-02-07 23:56:00,
2013-02-07 18:01:00,50.7,48.2,29.99,North,358,0.0,5.0,91,0.01,,-RA,0.07,VWS V14.01,2013-02-08 00:01:00,
2013-02-07 18:06:00,50.2,48.0,30.00,NNW,343,1.0,4.0,92,0.02,,-RA,0.08,VWS V14.01,2013-02-08 00:06:00,
2013-02-07 18:11:00,49.9,47.4,30.00,NNW,344,0.0,5.0,91,0.03,,-RA,0.09,VWS V14.01,2013-02-08 00:11:00,
2013-02-07 18:16:00,49.8,47.3,30.00,NNE,16,4.0,4.0,91,0.03,,-RA,0.09,VWS V14.01,2013-02-08 00:16:00,
2013-02-07 18:21:00,49.8,47.3,30.00,NNE,23,2.0,5.0,91,0.03,,-RA,0.09,VWS V14.01,2013-02-08 00:21:00,
2013-02-07 18:26:00,49.7,47.2,29.99,NE,34,2.0,7.0,91,0.03,,-RA,0.09,VWS V14.01,2013-02-08 00:26:00,
2013-02-07 18:31:00,49.7,47.2,30.00,NNE,28,1.0,5.0,91,0.04,,-RA,0.10,VWS V14.01,2013-02-08 00:31:00,
2013-02-07 18:36:00,49.5,47.0,30.01,North,358,0.0,4.0,91,0.06,,-RA,0.12,VWS V14.01,2013-02-08 00:36:00,
2013-02-07 18:41:00,49.3,46.8,30.01,NNW,347,2.0,5.0,91,0.07,,-RA,0.14,VWS V14.01,2013-02-08 00:41:00,
2013-02-07 18:46:00,49.3,46.8,30.02,NNW,336,0.0,6.0,91,0.08,,-RA,0.15,VWS V14.01,2013-02-08 00:46:00,
2013-02-07 18:51:00,49.2,46.7,30.02,NW,320,0.0,3.0,91,0.09,,-RA,0.16,VWS V14.01,2013-02-08 00:51:00,
2013-02-07 18:56:00,49.1,46.6,30.02,NNW,335,0.0,2.0,91,0.10,,-RA,0.17,VWS V14.01,2013-02-08 00:56:00,
2013-02-07 19:02:00,49.1,46.6,30.03,NNW,339,0.0,3.0,91,0.10,,-RA,0.17,VWS V14.01,2013-02-08 01:02:00,
2013-02-07 19:07:00,49.1,46.9,30.03,NNW,339,0.0,2.0,92,0.11,,-RA,0.18,VWS V14.01,2013-02-08 01:07:00,
2013-02-07 19:12:00,48.9,46.7,30.02,North,358,0.0,4.0,92,0.10,,-RA,0.19,VWS V14.01,2013-02-08 01:12:00,
2013-02-07 19:17:00,48.8,46.6,30.02,NNE,12,0.0,2.0,92,0.11,,-RA,0.20,VWS V14.01,2013-02-08 01:17:00,
2013-02-07 19:22:00,48.8,46.6,30.02,North,1,5.0,5.0,92,0.11,,-RA,0.20,VWS V14.01,2013-02-08 01:22:00,
2013-02-07 19:27:00,48.6,46.4,30.03,North,1,6.0,6.0,92,0.11,,-RA,0.20,VWS V14.01,2013-02-08 01:27:00,
2013-02-07 19:32:00,48.6,46.4,30.03,NNE,26,0.0,6.0,92,0.10,,-RA,0.20,VWS V14.01,2013-02-08 01:32:00,
2013-02-07 19:37:00,48.6,46.4,30.03,NNE,27,2.0,4.0,92,0.10,,-RA,0.20,VWS V14.01,2013-02-08 01:37:00,
2013-02-07 19:42:00,48.7,46.5,30.04,NNE,17,0.0,3.0,92,0.07,,-RA,0.20,VWS V14.01,2013-02-08 01:42:00,
2013-02-07 19:47:00,48.6,46.4,30.05,North,352,0.0,5.0,92,0.07,,-RA,0.20,VWS V14.01,2013-02-08 01:47:00,
2013-02-07 19:52:00,48.5,46.3,30.05,NNW,336,0.0,5.0,92,0.04,,-RA,0.20,VWS V14.01,2013-02-08 01:52:00,
2013-02-07 19:57:00,48.6,46.4,30.05,NNW,343,0.0,7.0,92,0.04,,-RA,0.20,VWS V14.01,2013-02-08 01:57:00,
2013-02-07 20:02:00,48.6,46.4,30.05,NNW,340,0.0,7.0,92,0.03,,-RA,0.20,VWS V14.01,2013-02-08 02:02:00,
2013-02-07 20:07:00,48.4,45.9,30.05,North,356,2.0,9.0,91,0.03,,-RA,0.20,VWS V14.01,2013-02-08 02:07:00,
2013-02-07 20:12:00,48.0,45.5,30.06,NNW,339,2.0,14.0,91,0.02,,-RA,0.20,VWS V14.01,2013-02-08 02:12:00,
2013-02-07 20:17:00,47.5,44.7,30.05,NNW,344,0.0,8.0,90,0.02,,-RA,0.20,VWS V14.01,2013-02-08 02:17:00,
2013-02-07 20:22:00,47.1,44.3,30.05,North,5,3.0,7.0,90,0.00,,-RA,0.20,VWS V14.01,2013-02-08 02:22:00,
2013-02-07 20:28:00,46.9,44.4,30.05,NE,34,0.0,7.0,91,0.00,,-RA,0.20,VWS V14.01,2013-02-08 02:28:00,
2013-02-07 20:33:00,46.7,44.2,30.05,NNE,17,2.0,6.0,91,0.00,,-RA,0.20,VWS V14.01,2013-02-08 02:33:00,
2013-02-07 20:38:00,46.2,43.7,30.06,NNW,344,5.0,8.0,91,0.00,,-RA,0.20,VWS V14.01,2013-02-08 02:38:00,
2013-02-07 20:43:00,45.9,43.4,30.06,North,352,0.0,8.0,91,0.00,,-RA,0.20,VWS V14.01,2013-02-08 02:43:00,
2013-02-07 20:48:00,45.8,43.3,30.06,NNE,28,0.0,11.0,91,0.00,,-RA,0.20,VWS V14.01,2013-02-08 02:48:00,
2013-02-07 20:53:00,45.7,43.2,30.06,NNW,348,4.0,7.0,91,0.00,,-RA,0.20,VWS V14.01,2013-02-08 02:53:00,
2013-02-07 20:58:00,45.6,43.1,30.06,NNE,21,2.0,10.0,91,0.00,,-RA,0.20,VWS V14.01,2013-02-08 02:58:00,
2013-02-07 21:03:00,45.4,42.9,30.06,NNE,27,2.0,5.0,91,0.00,,-RA,0.20,VWS V14.01,2013-02-08 03:03:00,
2013-02-07 21:08:00,45.4,43.2,30.07,North,355,4.0,9.0,92,0.00,,-RA,0.20,VWS V14.01,2013-02-08 03:08:00,
2013-02-07 21:13:00,45.4,42.9,30.07,North,353,0.0,9.0,91,0.00,,-RA,0.20,VWS V14.01,2013-02-08 03:13:00,
2013-02-07 21:18:00,45.2,42.7,30.07,North,2,5.0,6.0,91,0.00,,-RA,0.20,VWS V14.01,2013-02-08 03:18:00,
2013-02-07 21:23:00,45.2,42.7,30.08,NNE,29,3.0,6.0,91,0.00,,-RA,0.20,VWS V14.01,2013-02-08 03:23:00,
2013-02-07 21:29:00,45.3,42.8,30.08,NNE,26,1.0,5.0,91,0.00,,-RA,0.20,VWS V14.01,2013-02-08 03:29:00,
2013-02-07 21:34:00,45.1,42.6,30.09,North,351,0.0,9.0,91,0.00,,-RA,0.20,VWS V14.01,2013-02-08 03:34:00,
2013-02-07 21:39:00,45.1,42.3,30.09,NNE,23,1.0,5.0,90,0.00,,-RA,0.20,VWS V14.01,2013-02-08 03:39:00,
2013-02-07 21:44:00,45.0,42.2,30.09,NNE,20,0.0,4.0,90,0.00,,-RA,0.20,VWS V14.01,2013-02-08 03:44:00,
2013-02-07 21:49:00,45.0,42.5,30.09,North,358,4.0,6.0,91,0.00,,,0.20,VWS V14.01,2013-02-08 03:49:00,
2013-02-07 21:54:00,45.0,42.5,30.09,NNE,25,4.0,5.0,91,0.00,,,0.20,VWS V14.01,2013-02-08 03:54:00,
2013-02-07 21:59:00,45.0,42.2,30.09,NNE,21,3.0,5.0,90,0.00,,,0.20,VWS V14.01,2013-02-08 03:59:00,
2013-02-07 22:04:00,45.0,42.2,30.09,NNE,30,2.0,5.0,90,0.00,,,0.20,VWS V14.01,2013-02-08 04:04:00,
2013-02-07 22:09:00,44.8,42.0,30.10,NNE,21,1.0,5.0,90,0.00,,,0.20,VWS V14.01,2013-02-08 04:09:00,
2013-02-07 22:14:00,44.8,41.5,30.10,NNE,21,0.0,5.0,88,0.00,,,0.20,VWS V14.01,2013-02-08 04:14:00,
2013-02-07 22:19:00,44.9,41.3,30.10,NE,35,0.0,7.0,87,0.00,,,0.20,VWS V14.01,2013-02-08 04:19:00,
2013-02-07 22:24:00,44.8,41.2,30.10,NNE,19,4.0,4.0,87,0.00,,,0.20,VWS V14.01,2013-02-08 04:24:00,
2013-02-07 22:29:00,44.8,41.2,30.10,NNE,22,4.0,4.0,87,0.00,,,0.20,VWS V14.01,2013-02-08 04:29:00,
2013-02-07 22:34:00,44.7,40.8,30.10,NNE,31,2.0,5.0,86,0.00,,,0.20,VWS V14.01,2013-02-08 04:34:00,
2013-02-07 22:39:00,44.7,40.5,30.10,North,350,0.0,5.0,85,0.00,,,0.20,VWS V14.01,2013-02-08 04:39:00,
2013-02-07 22:44:00,44.7,40.5,30.10,NNE,25,2.0,4.0,85,0.00,,,0.20,VWS V14.01,2013-02-08 04:44:00,
2013-02-07 22:49:00,44.6,40.4,30.11,NNE,25,2.0,4.0,85,0.00,,,0.20,VWS V14.01,2013-02-08 04:49:00,
2013-02-07 22:55:00,44.4,40.2,30.11,NNE,15,2.0,3.0,85,0.00,,,0.20,VWS V14.01,2013-02-08 04:55:00,
2013-02-07 23:00:00,44.7,40.5,30.11,NNE,29,2.0,4.0,85,0.00,,,0.20,VWS V14.01,2013-02-08 05:00:00,
2013-02-07 23:01:00,44.7,40.2,30.11,North,7,3.0,4.0,84,0.00,,,0.20,VWS V14.01,2013-02-08 05:01:00,
2013-02-07 23:06:00,44.7,39.9,30.11,NNE,31,0.0,6.0,83,0.00,,,0.20,VWS V14.01,2013-02-08 05:06:00,
2013-02-07 23:11:00,44.7,40.2,30.11,NNE,24,5.0,6.0,84,0.00,,,0.20,VWS V14.01,2013-02-08 05:11:00,
2013-02-07 23:16:00,44.7,40.2,30.11,NNE,15,3.0,6.0,84,0.00,,,0.20,VWS V14.01,2013-02-08 05:16:00,
2013-02-07 23:21:00,44.7,40.2,30.11,NNE,20,0.0,4.0,84,0.00,,,0.20,VWS V14.01,2013-02-08 05:21:00,
2013-02-07 23:26:00,44.7,40.5,30.12,North,358,0.0,4.0,85,0.00,,,0.20,VWS V14.01,2013-02-08 05:26:00,
2013-02-07 23:31:00,44.6,40.4,30.12,NNE,21,0.0,3.0,85,0.00,,,0.20,VWS V14.01,2013-02-08 05:31:00,
2013-02-07 23:36:00,44.6,40.4,30.12,NNE,21,0.0,3.0,85,0.00,,,0.20,VWS V14.01,2013-02-08 05:36:00,
2013-02-07 23:41:00,44.5,40.3,30.12,NNE,21,0.0,3.0,85,0.00,,,0.20,VWS V14.01,2013-02-08 05:41:00,
2013-02-07 23:46:00,44.4,40.2,30.12,North,355,0.0,5.0,85,0.00,,,0.20,VWS V14.01,2013-02-08 05:46:00,
2013-02-07 23:51:00,44.4,39.9,30.12,North,357,0.0,6.0,84,0.00,,,0.20,VWS V14.01,2013-02-08 05:51:00,
2013-02-07 23:56:00,44.3,39.5,30.12,NNW,348,3.0,4.0,83,0.00,,,0.20,VWS V14.01,2013-02-08 05:56:00,